createdAt,value
2018-09-27T00:01:39.217Z,11.81
2018-09-27T00:04:05.529Z,11.84
2018-09-27T00:06:31.866Z,11.83
2018-09-27T00:08:58.202Z,11.84
2018-09-27T00:11:24.515Z,11.84
2018-09-27T00:13:50.944Z,11.84
2018-09-27T00:16:17.260Z,11.84
2018-09-27T00:18:43.620Z,11.83
2018-09-27T00:21:09.960Z,11.84
2018-09-27T00:23:36.301Z,11.85
2018-09-27T00:26:02.616Z,11.86
2018-09-27T00:28:28.955Z,11.85
2018-09-27T00:30:55.291Z,11.85
2018-09-27T00:33:21.626Z,11.86
2018-09-27T00:35:47.982Z,11.86
2018-09-27T00:38:14.324Z,11.85
2018-09-27T00:40:40.659Z,11.85
2018-09-27T00:43:06.977Z,11.85
2018-09-27T00:45:33.314Z,11.85
2018-09-27T00:47:59.628Z,11.84
2018-09-27T00:50:25.970Z,11.84
2018-09-27T00:52:52.291Z,11.84
2018-09-27T00:55:18.605Z,11.82
2018-09-27T00:57:44.925Z,11.83
2018-09-27T01:00:11.237Z,11.82
2018-09-27T01:02:37.557Z,11.81
2018-09-27T01:05:03.935Z,11.79
2018-09-27T01:07:30.251Z,11.79
2018-09-27T01:09:56.592Z,11.79
2018-09-27T01:12:22.933Z,11.78
2018-09-27T01:14:49.246Z,11.78
2018-09-27T01:17:15.589Z,11.78
2018-09-27T01:19:41.929Z,11.77
2018-09-27T01:22:08.263Z,11.76
2018-09-27T01:24:34.576Z,11.75
2018-09-27T01:27:00.904Z,11.76
2018-09-27T01:29:27.218Z,11.75
2018-09-27T01:31:53.529Z,11.73
2018-09-27T01:34:19.911Z,11.73
2018-09-27T01:36:46.284Z,11.73
2018-09-27T01:39:12.614Z,11.71
2018-09-27T01:41:38.968Z,11.70
2018-09-27T01:44:05.301Z,11.70
2018-09-27T01:46:31.635Z,11.68
2018-09-27T01:48:58.056Z,11.67
2018-09-27T01:51:24.402Z,11.68
2018-09-27T01:53:50.813Z,11.67
2018-09-27T01:56:17.197Z,11.65
2018-09-27T01:58:43.509Z,11.64
2018-09-27T02:01:09.819Z,11.64
2018-09-27T02:03:36.191Z,11.63
2018-09-27T02:06:02.501Z,11.62
2018-09-27T02:08:28.839Z,11.60
2018-09-27T02:10:55.174Z,11.57
2018-09-27T02:13:21.489Z,11.58
2018-09-27T02:15:47.809Z,11.56
2018-09-27T02:18:14.121Z,11.56
2018-09-27T02:20:40.444Z,11.55
2018-09-27T02:23:06.783Z,11.53
2018-09-27T02:25:33.098Z,11.53
2018-09-27T02:27:59.438Z,11.51
2018-09-27T02:30:25.753Z,11.51
2018-09-27T02:32:52.086Z,11.49
2018-09-27T02:35:18.472Z,11.49
2018-09-27T02:37:44.856Z,11.47
2018-09-27T02:40:11.169Z,11.46
2018-09-27T02:42:37.479Z,11.46
2018-09-27T02:45:03.790Z,11.45
2018-09-27T02:47:30.100Z,11.44
2018-09-27T02:49:56.458Z,11.41
2018-09-27T02:52:22.768Z,11.40
2018-09-27T02:54:49.112Z,11.37
2018-09-27T02:57:15.437Z,11.38
2018-09-27T02:59:41.776Z,11.39
2018-09-27T03:02:08.090Z,11.36
2018-09-27T03:04:34.434Z,11.36
2018-09-27T03:07:00.776Z,11.36
2018-09-27T03:09:27.088Z,11.35
2018-09-27T03:11:53.430Z,11.33
2018-09-27T03:14:19.767Z,11.31
2018-09-27T03:16:46.090Z,11.33
2018-09-27T03:19:12.451Z,11.30
2018-09-27T03:21:38.835Z,11.30
2018-09-27T03:24:05.152Z,11.30
2018-09-27T03:26:31.470Z,11.28
2018-09-27T03:28:57.823Z,11.29
2018-09-27T03:31:24.157Z,11.28
2018-09-27T03:33:50.495Z,11.28
2018-09-27T03:36:16.813Z,11.28
2018-09-27T03:38:43.129Z,11.24
2018-09-27T03:41:09.467Z,11.24
2018-09-27T03:43:35.848Z,11.24
2018-09-27T03:46:02.187Z,11.24
2018-09-27T03:48:28.523Z,11.24
2018-09-27T03:50:54.869Z,11.23
2018-09-27T03:53:21.193Z,11.21
2018-09-27T03:55:47.515Z,11.20
2018-09-27T03:58:13.834Z,11.18
2018-09-27T04:00:40.140Z,11.21
2018-09-27T04:03:06.530Z,11.21
2018-09-27T04:05:32.804Z,11.20
2018-09-27T04:07:59.142Z,11.21
2018-09-27T04:10:25.458Z,11.19
2018-09-27T04:12:51.796Z,11.28
2018-09-27T04:15:18.144Z,12.26
2018-09-27T04:17:44.451Z,12.70
2018-09-27T04:20:10.790Z,11.68
2018-09-27T04:22:37.104Z,11.08
2018-09-27T04:25:03.475Z,11.05
2018-09-27T04:27:29.818Z,11.03
2018-09-27T04:29:56.158Z,11.03
2018-09-27T04:32:22.473Z,10.93
2018-09-27T04:34:48.813Z,10.54
2018-09-27T04:37:15.150Z,10.28
2018-09-27T04:39:41.494Z,10.02
2018-09-27T04:42:07.803Z,9.82
2018-09-27T04:44:34.109Z,9.82
2018-09-27T04:47:00.424Z,9.84
2018-09-27T04:49:26.761Z,9.90
2018-09-27T04:51:53.151Z,9.96
2018-09-27T04:54:19.437Z,10.06
2018-09-27T04:56:45.750Z,10.08
2018-09-27T04:59:12.068Z,10.10
2018-09-27T05:01:38.381Z,10.20
2018-09-27T05:04:04.718Z,10.32
2018-09-27T05:06:31.138Z,10.40
2018-09-27T05:08:57.427Z,10.45
2018-09-27T05:11:23.766Z,10.45
2018-09-27T05:13:50.074Z,10.49
2018-09-27T05:16:16.467Z,10.53
2018-09-27T05:18:42.803Z,10.58
2018-09-27T05:21:09.172Z,10.68
2018-09-27T05:23:35.518Z,10.78
2018-09-27T05:26:01.877Z,10.90
2018-09-27T05:28:28.192Z,10.99
2018-09-27T05:30:54.536Z,11.01
2018-09-27T05:33:20.863Z,11.13
2018-09-27T05:35:47.239Z,11.22
2018-09-27T05:38:13.552Z,11.32
2018-09-27T05:40:39.895Z,11.48
2018-09-27T05:43:06.241Z,11.45
2018-09-27T05:45:32.591Z,11.59
2018-09-27T05:47:58.927Z,11.58
2018-09-27T05:50:25.256Z,11.73
2018-09-27T05:52:51.606Z,11.80
2018-09-27T05:55:17.921Z,11.96
2018-09-27T05:57:44.259Z,12.15
2018-09-27T06:00:10.568Z,12.22
2018-09-27T06:02:36.909Z,12.27
2018-09-27T06:05:03.238Z,12.41
2018-09-27T06:07:29.551Z,12.55
2018-09-27T06:09:55.893Z,12.60
2018-09-27T06:12:22.232Z,12.71
2018-09-27T06:14:48.547Z,12.87
2018-09-27T06:17:14.865Z,12.94
2018-09-27T06:19:41.252Z,12.98
2018-09-27T06:22:07.522Z,13.16
2018-09-27T06:24:33.871Z,13.27
2018-09-27T06:27:00.187Z,13.41
2018-09-27T06:29:26.526Z,13.53
2018-09-27T06:31:52.942Z,13.61
2018-09-27T06:34:19.259Z,13.64
2018-09-27T06:36:45.601Z,13.84
2018-09-27T06:39:11.946Z,13.94
2018-09-27T06:41:38.289Z,14.05
2018-09-27T06:44:04.612Z,14.28
2018-09-27T06:46:30.957Z,14.34
2018-09-27T06:48:57.291Z,14.56
2018-09-27T06:51:23.688Z,14.91
2018-09-27T06:53:50.124Z,15.19
2018-09-27T06:56:16.515Z,15.30
2018-09-27T06:58:42.780Z,15.52
2018-09-27T07:01:09.118Z,15.65
2018-09-27T07:03:35.461Z,15.68
2018-09-27T07:06:01.812Z,15.78
2018-09-27T07:08:28.203Z,15.88
2018-09-27T07:10:54.451Z,15.89
2018-09-27T07:13:20.773Z,16.02
2018-09-27T07:15:47.091Z,16.16
2018-09-27T07:18:13.434Z,16.35
2018-09-27T07:20:39.756Z,16.48
2018-09-27T07:23:06.091Z,16.72
2018-09-27T07:25:32.408Z,16.95
2018-09-27T07:27:58.725Z,17.06
2018-09-27T07:30:25.115Z,17.18
2018-09-27T07:32:51.466Z,17.24
2018-09-27T07:35:17.808Z,17.33
2018-09-27T07:37:44.149Z,17.56
2018-09-27T07:40:10.475Z,17.78
2018-09-27T07:42:36.855Z,17.97
2018-09-27T07:45:03.124Z,18.17
2018-09-27T07:47:29.433Z,18.33
2018-09-27T07:49:55.776Z,18.52
2018-09-27T07:52:22.116Z,18.62
2018-09-27T07:54:48.463Z,18.79
2018-09-27T07:57:14.797Z,18.86
2018-09-27T07:59:41.157Z,18.79
2018-09-27T08:02:07.513Z,18.92
2018-09-27T08:04:33.822Z,19.02
2018-09-27T08:07:00.138Z,19.13
2018-09-27T08:09:26.453Z,19.12
2018-09-27T08:11:52.811Z,18.86
2018-09-27T08:14:19.147Z,18.85
2018-09-27T08:16:45.531Z,18.82
2018-09-27T08:19:11.877Z,19.05
2018-09-27T08:21:38.190Z,19.13
2018-09-27T08:24:04.540Z,18.98
2018-09-27T08:26:30.897Z,18.93
2018-09-27T08:28:57.186Z,18.94
2018-09-27T08:31:23.524Z,18.92
2018-09-27T08:33:49.844Z,19.01
2018-09-27T08:36:16.163Z,19.24
2018-09-27T08:38:42.548Z,19.39
2018-09-27T08:41:08.858Z,19.56
2018-09-27T08:43:35.206Z,19.63
2018-09-27T08:46:01.542Z,19.79
2018-09-27T08:48:27.898Z,20.06
2018-09-27T08:50:54.216Z,20.32
2018-09-27T08:53:20.541Z,20.46
2018-09-27T08:55:47.045Z,20.62
2018-09-27T08:58:13.206Z,20.65
2018-09-27T09:00:39.553Z,20.60
2018-09-27T09:03:05.898Z,20.83
2018-09-27T09:05:32.217Z,20.90
2018-09-27T09:07:58.555Z,20.91
2018-09-27T09:10:24.915Z,20.92
2018-09-27T09:12:51.283Z,20.80
2018-09-27T09:15:17.621Z,20.81
2018-09-27T09:17:43.943Z,20.59
2018-09-27T09:20:10.265Z,20.52
2018-09-27T09:22:36.604Z,20.59
2018-09-27T09:25:02.977Z,20.69
2018-09-27T09:27:29.309Z,20.79
2018-09-27T09:29:55.662Z,20.88
2018-09-27T09:32:21.930Z,21.09
2018-09-27T09:34:48.251Z,21.33
2018-09-27T09:37:14.597Z,21.49
2018-09-27T09:39:40.913Z,21.65
2018-09-27T09:42:07.230Z,21.59
2018-09-27T09:44:33.577Z,21.48
2018-09-27T09:46:59.889Z,21.53
2018-09-27T09:49:26.270Z,21.68
2018-09-27T09:51:52.577Z,21.66
2018-09-27T09:54:18.916Z,21.51
2018-09-27T09:56:45.255Z,21.52
2018-09-27T09:59:11.639Z,21.52
2018-09-27T10:01:37.961Z,21.56
2018-09-27T10:04:04.336Z,21.71
2018-09-27T10:06:30.656Z,21.78
2018-09-27T10:08:57.088Z,21.76
2018-09-27T10:11:23.345Z,21.70
2018-09-27T10:13:49.683Z,21.64
2018-09-27T10:16:16.007Z,21.44
2018-09-27T10:18:42.347Z,21.42
2018-09-27T10:21:08.739Z,21.68
2018-09-27T10:23:35.057Z,21.96
2018-09-27T10:26:01.374Z,22.22
2018-09-27T10:28:27.696Z,22.26
2018-09-27T10:30:54.072Z,22.20
2018-09-27T10:33:20.385Z,21.95
2018-09-27T10:35:46.698Z,21.78
2018-09-27T10:38:13.019Z,21.64
2018-09-27T10:40:39.364Z,21.57
2018-09-27T10:43:05.703Z,21.77
2018-09-27T10:45:32.075Z,21.95
2018-09-27T10:47:58.426Z,22.28
2018-09-27T10:50:24.758Z,22.36
2018-09-27T10:52:51.100Z,22.26
2018-09-27T10:55:17.436Z,22.41
2018-09-27T10:57:43.750Z,22.45
2018-09-27T11:00:10.093Z,22.19
2018-09-27T11:02:36.435Z,22.00
2018-09-27T11:05:02.752Z,22.01
2018-09-27T11:10:15.445Z,22.14
2018-09-27T11:12:41.903Z,22.03
2018-09-27T11:15:08.251Z,22.10
2018-09-27T11:17:34.599Z,22.08
2018-09-27T11:20:00.984Z,22.11
2018-09-27T11:22:27.353Z,22.33
2018-09-27T11:24:53.785Z,22.37
2018-09-27T11:27:20.111Z,22.45
2018-09-27T11:29:46.473Z,22.51
2018-09-27T11:32:12.806Z,22.45
2018-09-27T11:34:39.118Z,22.42
2018-09-27T11:37:05.433Z,22.61
2018-09-27T11:39:31.775Z,22.53
2018-09-27T11:41:58.142Z,22.34
2018-09-27T11:44:24.489Z,22.26
2018-09-27T11:46:50.819Z,22.16
2018-09-27T11:49:17.289Z,22.14
2018-09-27T11:51:43.479Z,22.24
2018-09-27T11:54:09.798Z,22.38
2018-09-27T11:56:36.144Z,22.22
2018-09-27T11:59:02.559Z,22.08
2018-09-27T12:01:28.845Z,22.13
2018-09-27T12:03:55.149Z,22.31
2018-09-27T12:06:21.498Z,22.49
2018-09-27T12:08:47.819Z,22.59
2018-09-27T12:11:14.142Z,22.50
2018-09-27T12:13:40.572Z,22.43
2018-09-27T12:16:06.938Z,22.27
2018-09-27T12:18:33.275Z,22.12
2018-09-27T12:20:59.616Z,21.93
2018-09-27T12:23:25.940Z,21.81
2018-09-27T12:25:52.279Z,21.78
2018-09-27T12:28:18.605Z,21.77
2018-09-27T12:30:44.920Z,21.83
2018-09-27T12:33:11.323Z,21.80
2018-09-27T12:35:37.659Z,21.70
2018-09-27T12:38:03.980Z,21.58
2018-09-27T12:40:30.333Z,21.46
2018-09-27T12:42:56.725Z,21.40
2018-09-27T12:45:22.993Z,21.47
2018-09-27T12:47:49.414Z,21.51
2018-09-27T12:50:15.725Z,21.64
2018-09-27T12:52:42.089Z,21.65
2018-09-27T12:55:08.381Z,21.53
2018-09-27T12:57:34.731Z,21.50
2018-09-27T13:00:01.078Z,21.44
2018-09-27T13:02:27.452Z,21.41
2018-09-27T13:04:53.760Z,21.45
2018-09-27T13:07:20.100Z,21.52
2018-09-27T13:09:46.579Z,21.47
2018-09-27T13:12:12.836Z,21.33
2018-09-27T13:14:39.165Z,21.19
2018-09-27T13:17:05.424Z,20.98
2018-09-27T13:19:31.773Z,20.94
2018-09-27T13:21:58.053Z,20.96
2018-09-27T13:24:24.409Z,21.05
2018-09-27T13:26:50.767Z,21.04
2018-09-27T13:29:17.057Z,21.11
2018-09-27T13:31:43.403Z,21.10
2018-09-27T13:34:09.757Z,21.06
2018-09-27T13:36:36.062Z,21.01
2018-09-27T13:39:02.404Z,20.98
2018-09-27T13:41:28.694Z,20.89
2018-09-27T13:43:55.077Z,20.74
2018-09-27T13:46:21.467Z,20.56
2018-09-27T13:48:47.821Z,20.52
2018-09-27T13:51:14.135Z,20.50
2018-09-27T13:53:40.550Z,20.50
2018-09-27T13:56:06.878Z,20.49
2018-09-27T13:58:33.224Z,20.43
2018-09-27T14:00:59.607Z,20.18
2018-09-27T14:03:25.871Z,20.05
2018-09-27T14:05:52.188Z,19.97
2018-09-27T14:08:18.527Z,19.96
2018-09-27T14:10:44.867Z,19.98
2018-09-27T14:13:11.301Z,19.98
2018-09-27T14:15:37.644Z,19.99
2018-09-27T14:18:03.991Z,19.94
2018-09-27T14:20:30.310Z,19.91
2018-09-27T14:22:56.703Z,19.90
2018-09-27T14:25:23.022Z,19.87
2018-09-27T14:27:49.337Z,19.84
2018-09-27T14:30:17.248Z,19.80
2018-09-27T14:32:43.569Z,19.79
2018-09-27T14:35:09.891Z,19.77
2018-09-27T14:37:36.202Z,19.71
2018-09-27T14:40:02.523Z,19.69
2018-09-27T14:42:28.933Z,19.64
2018-09-27T14:44:55.348Z,19.96
2018-09-27T14:47:21.666Z,20.22
2018-09-27T14:49:47.986Z,20.13
2018-09-27T14:52:14.302Z,20.02
2018-09-27T14:54:40.618Z,19.90
2018-09-27T14:57:06.979Z,19.78
2018-09-27T14:59:33.364Z,19.66
2018-09-27T15:02:09.437Z,19.61
2018-09-27T15:04:35.748Z,19.57
2018-09-27T15:07:02.081Z,19.53
2018-09-27T15:09:28.467Z,19.48
2018-09-27T15:11:54.756Z,19.42
2018-09-27T15:14:21.119Z,19.39
2018-09-27T15:16:47.476Z,19.36
2018-09-27T15:19:13.817Z,19.34
2018-09-27T15:21:40.157Z,19.29
2018-09-27T15:24:06.496Z,19.23
2018-09-27T15:26:32.838Z,19.17
2018-09-27T15:28:59.181Z,19.13
2018-09-27T15:31:25.521Z,19.10
2018-09-27T15:33:51.866Z,19.06
2018-09-27T15:36:18.267Z,19.04
2018-09-27T15:38:44.601Z,18.98
2018-09-27T15:41:10.942Z,19.11
2018-09-27T15:43:37.276Z,19.32
2018-09-27T15:46:03.621Z,19.47
2018-09-27T15:48:29.963Z,19.57
2018-09-27T15:50:56.303Z,19.66
2018-09-27T15:53:22.640Z,19.61
2018-09-27T15:55:48.983Z,19.37
2018-09-27T15:58:15.315Z,19.15
2018-09-27T16:00:41.668Z,19.01
2018-09-27T16:03:08.010Z,18.91
2018-09-27T16:05:34.352Z,18.78
2018-09-27T16:08:00.697Z,18.77
2018-09-27T16:10:27.044Z,18.70
2018-09-27T16:12:53.388Z,18.63
2018-09-27T16:15:19.778Z,18.56
2018-09-27T16:17:46.136Z,18.50
2018-09-27T16:20:12.436Z,18.49
2018-09-27T16:22:38.777Z,18.64
2018-09-27T16:25:05.119Z,18.65
2018-09-27T16:27:31.461Z,18.65
2018-09-27T16:29:57.806Z,18.65
2018-09-27T16:32:24.145Z,18.60
2018-09-27T16:34:50.484Z,18.36
2018-09-27T16:37:16.824Z,18.29
2018-09-27T16:39:43.172Z,18.30
2018-09-27T16:42:09.510Z,18.28
2018-09-27T16:44:35.889Z,18.18
2018-09-27T16:47:02.229Z,18.10
2018-09-27T16:49:28.573Z,18.00
2018-09-27T16:51:55.998Z,17.95
2018-09-27T16:54:22.314Z,17.84
2018-09-27T16:56:48.626Z,17.73
2018-09-27T16:59:14.946Z,17.62
2018-09-27T17:01:41.287Z,17.65
2018-09-27T17:04:07.572Z,17.62
2018-09-27T17:06:33.938Z,17.62
2018-09-27T17:09:00.260Z,17.53
2018-09-27T17:11:26.569Z,17.50
2018-09-27T17:13:52.888Z,17.76
2018-09-27T17:16:19.255Z,17.97
2018-09-27T17:18:45.613Z,18.08
2018-09-27T17:21:11.897Z,18.14
2018-09-27T17:23:38.262Z,18.14
2018-09-27T17:26:04.530Z,18.15
2018-09-27T17:28:30.858Z,18.12
2018-09-27T17:30:57.177Z,18.11
2018-09-27T17:33:23.501Z,18.08
2018-09-27T17:35:49.847Z,18.04
2018-09-27T17:38:16.167Z,18.01
2018-09-27T17:40:42.565Z,17.98
2018-09-27T17:43:08.844Z,17.96
2018-09-27T17:45:35.207Z,17.92
2018-09-27T17:48:01.529Z,17.90
2018-09-27T17:50:27.849Z,17.87
2018-09-27T17:52:54.197Z,17.85
2018-09-27T17:55:20.586Z,17.83
2018-09-27T17:57:46.905Z,17.81
2018-09-27T18:00:14.631Z,17.77
2018-09-27T18:02:40.993Z,17.74
2018-09-27T18:05:18.815Z,17.70
2018-09-27T18:07:33.824Z,17.65
2018-09-27T18:10:00.150Z,17.64
2018-09-27T18:12:26.512Z,17.61
2018-09-27T18:14:54.491Z,17.59
2018-09-27T18:17:19.637Z,17.55
2018-09-27T18:19:46.046Z,17.53
2018-09-27T18:22:12.340Z,17.49
2018-09-27T18:24:39.117Z,17.47
2018-09-27T18:27:05.829Z,17.47
2018-09-27T18:29:32.597Z,17.47
2018-09-27T18:31:59.094Z,17.39
2018-09-27T18:34:25.476Z,17.36
2018-09-27T18:36:51.775Z,17.32
2018-09-27T18:39:18.120Z,17.32
2018-09-27T18:41:44.505Z,17.27
2018-09-27T18:44:10.841Z,17.25
2018-09-27T18:46:37.208Z,17.22
2018-09-27T18:49:03.581Z,17.16
2018-09-27T18:51:29.912Z,17.12
2018-09-27T18:53:56.240Z,17.11
2018-09-27T18:56:22.559Z,17.08
2018-09-27T18:58:48.900Z,17.08
2018-09-27T19:01:15.263Z,17.05
2018-09-27T19:03:41.616Z,17.24
2018-09-27T19:06:07.941Z,17.31
2018-09-27T19:08:34.309Z,17.24
2018-09-27T19:11:00.684Z,17.14
2018-09-27T19:13:27.038Z,17.05
2018-09-27T19:15:53.817Z,17.01
2018-09-27T19:18:20.153Z,16.94
2018-09-27T19:20:46.467Z,16.90
2018-09-27T19:23:12.832Z,16.85
2018-09-27T19:25:39.191Z,16.81
2018-09-27T19:28:05.616Z,16.78
2018-09-27T19:30:32.047Z,16.75
2018-09-27T19:32:58.451Z,16.73
2018-09-27T19:35:24.821Z,16.71
2018-09-27T19:37:51.249Z,16.67
2018-09-27T19:40:17.583Z,16.65
2018-09-27T19:42:43.903Z,16.62
2018-09-27T19:45:10.222Z,16.61
2018-09-27T19:47:36.601Z,16.58
2018-09-27T19:50:03.079Z,16.54
2018-09-27T19:52:29.407Z,16.54
2018-09-27T19:54:55.758Z,16.49
2018-09-27T19:57:22.114Z,16.49
2018-09-27T19:59:48.454Z,16.45
2018-09-27T20:02:14.767Z,16.41
2018-09-27T20:04:41.135Z,16.39
2018-09-27T20:07:07.414Z,16.34
2018-09-27T20:09:33.774Z,16.30
2018-09-27T20:12:00.094Z,16.27
2018-09-27T20:14:26.410Z,16.25
2018-09-27T20:16:52.797Z,16.22
2018-09-27T20:19:19.084Z,16.18
2018-09-27T20:21:45.444Z,16.15
2018-09-27T20:24:11.771Z,16.11
2018-09-27T20:26:38.124Z,16.09
2018-09-27T20:29:04.452Z,16.07
2018-09-27T20:31:30.772Z,16.05
2018-09-27T20:33:57.127Z,16.03
2018-09-27T20:36:23.420Z,16.02
2018-09-27T20:38:49.734Z,15.99
2018-09-27T20:41:16.144Z,15.99
2018-09-27T20:43:42.514Z,15.95
2018-09-27T20:46:08.829Z,15.95
2018-09-27T20:48:35.248Z,15.93
2018-09-27T20:51:01.568Z,15.93
2018-09-27T20:53:27.926Z,15.91
2018-09-27T20:55:54.236Z,15.89
2018-09-27T20:58:20.549Z,15.86
2018-09-27T21:00:46.867Z,15.82
2018-09-27T21:03:13.207Z,15.79
2018-09-27T21:05:39.503Z,15.79
2018-09-27T21:08:05.813Z,15.76
2018-09-27T21:10:32.133Z,15.75
2018-09-27T21:12:58.454Z,15.73
2018-09-27T21:15:24.771Z,15.71
2018-09-27T21:17:51.107Z,15.70
2018-09-27T21:20:17.464Z,15.69
2018-09-27T21:22:43.773Z,15.68
2018-09-27T21:25:10.148Z,15.64
2018-09-27T21:27:36.409Z,15.64
2018-09-27T21:30:02.738Z,15.60
2018-09-27T21:32:29.113Z,15.61
2018-09-27T21:34:55.456Z,15.60
2018-09-27T21:37:21.876Z,15.59
2018-09-27T21:39:48.200Z,15.56
2018-09-27T21:42:14.527Z,15.55
2018-09-27T21:44:40.859Z,15.54
2018-09-27T21:47:07.192Z,15.52
2018-09-27T21:49:33.518Z,15.51
2018-09-27T21:51:59.850Z,15.51
2018-09-27T21:54:26.186Z,15.49
2018-09-27T21:56:52.518Z,15.49
2018-09-27T21:59:18.853Z,15.46
2018-09-27T22:01:45.184Z,15.43
2018-09-27T22:04:11.515Z,15.42
2018-09-27T22:06:37.846Z,15.39
2018-09-27T22:09:04.168Z,15.39
2018-09-27T22:11:30.490Z,15.38
2018-09-27T22:13:56.806Z,15.37
2018-09-27T22:16:23.124Z,15.35
2018-09-27T22:18:49.479Z,15.33
2018-09-27T22:21:15.792Z,15.32
2018-09-27T22:23:42.100Z,15.30
2018-09-27T22:26:08.423Z,15.26
2018-09-27T22:28:34.738Z,15.25
2018-09-27T22:31:01.110Z,15.21
2018-09-27T22:33:27.428Z,15.16
2018-09-27T22:35:53.739Z,15.17
2018-09-27T22:38:20.058Z,15.13
2018-09-27T22:40:46.371Z,15.11
2018-09-27T22:43:12.761Z,15.10
2018-09-27T22:45:39.042Z,15.09
2018-09-27T22:48:05.353Z,15.07
2018-09-27T22:50:31.680Z,15.07
2018-09-27T22:52:57.997Z,15.05
2018-09-27T22:55:24.322Z,15.04
2018-09-27T22:57:50.643Z,15.01
2018-09-27T23:00:16.982Z,14.99
2018-09-27T23:02:43.264Z,14.98
2018-09-27T23:05:09.589Z,14.96
2018-09-27T23:07:35.930Z,14.95
2018-09-27T23:10:02.285Z,14.93
2018-09-27T23:12:28.602Z,14.90
2018-09-27T23:14:54.955Z,14.89
2018-09-27T23:17:21.310Z,14.88
2018-09-27T23:19:47.624Z,14.87
2018-09-27T23:22:13.935Z,14.85
2018-09-27T23:24:40.262Z,14.83
2018-09-27T23:27:06.574Z,14.81
2018-09-27T23:29:32.893Z,14.79
2018-09-27T23:31:59.207Z,14.79
2018-09-27T23:34:25.520Z,14.78
2018-09-27T23:36:51.837Z,14.76
2018-09-27T23:39:18.158Z,14.76
2018-09-27T23:41:44.469Z,14.75
2018-09-27T23:44:10.802Z,14.72
2018-09-27T23:46:37.113Z,14.71
2018-09-27T23:49:03.430Z,14.70
2018-09-27T23:51:29.740Z,14.70
2018-09-27T23:53:56.050Z,14.68
2018-09-27T23:56:22.365Z,14.66
2018-09-27T23:58:48.686Z,14.65
